createdAt,value
2023-01-12T00:02:00.001Z,3.10
2023-01-12T00:04:27.030Z,3.20
2023-01-12T00:06:53.955Z,3.20
2023-01-12T00:09:20.839Z,3.30
2023-01-12T00:11:47.694Z,3.20
2023-01-12T00:14:15.130Z,3.30
2023-01-12T00:16:42.431Z,3.20
2023-01-12T00:19:17.354Z,3.20
2023-01-12T00:21:59.326Z,3.30
2023-01-12T00:24:36.167Z,3.30
2023-01-12T00:27:06.115Z,3.20
2023-01-12T00:29:33.474Z,3.10
2023-01-12T00:32:01.571Z,3.10
2023-01-12T00:34:29.761Z,3.30
2023-01-12T00:36:57.072Z,3.30
2023-01-12T00:39:23.917Z,3.30
2023-01-12T00:42:09.233Z,3.30
2023-01-12T00:44:54.792Z,3.20
2023-01-12T00:47:21.657Z,3.30
2023-01-12T00:49:49.587Z,3.30
2023-01-12T00:52:29.856Z,3.40
2023-01-12T00:54:58.700Z,3.40
2023-01-12T00:57:26.176Z,3.40
2023-01-12T00:59:55.516Z,3.40
2023-01-12T01:02:23.301Z,3.50
2023-01-12T01:04:50.875Z,3.40
2023-01-12T01:07:18.563Z,3.40
2023-01-12T01:09:45.750Z,3.40
2023-01-12T01:12:12.914Z,3.40
2023-01-12T01:14:39.848Z,3.40
2023-01-12T01:17:06.727Z,3.30
2023-01-12T01:19:33.588Z,3.30
2023-01-12T01:22:00.515Z,3.30
2023-01-12T01:24:27.476Z,3.30
2023-01-12T01:26:54.335Z,3.30
2023-01-12T01:29:21.221Z,3.20
2023-01-12T01:31:48.007Z,3.20
2023-01-12T01:34:15.146Z,3.10
2023-01-12T01:36:41.998Z,3.10
2023-01-12T01:39:08.945Z,3.10
2023-01-12T01:41:35.861Z,3.10
2023-01-12T01:44:06.390Z,3.20
2023-01-12T01:46:55.311Z,3.20
2023-01-12T01:49:30.617Z,3.30
2023-01-12T01:52:08.535Z,3.20
2023-01-12T01:54:43.039Z,3.20
2023-01-12T01:57:13.038Z,3.30
2023-01-12T01:59:45.059Z,3.30
2023-01-12T02:02:12.540Z,3.30
2023-01-12T02:04:39.491Z,3.20
2023-01-12T02:07:07.650Z,3.20
2023-01-12T02:09:34.871Z,3.30
2023-01-12T02:12:21.124Z,3.10
2023-01-12T02:15:09.648Z,3.10
2023-01-12T02:17:39.755Z,3.20
2023-01-12T02:20:31.503Z,3.20
2023-01-12T02:23:10.060Z,3.20
2023-01-12T02:26:14.209Z,3.20
2023-01-12T02:29:00.130Z,3.30
2023-01-12T02:31:48.402Z,3.10
2023-01-12T02:34:29.997Z,3.20
2023-01-12T02:37:21.867Z,3.20
2023-01-12T02:39:59.930Z,3.20
2023-01-12T02:42:42.097Z,3.10
2023-01-12T02:45:34.666Z,3.10
2023-01-12T02:48:06.426Z,3.30
2023-01-12T02:50:45.197Z,3.30
2023-01-12T02:53:32.466Z,3.20
2023-01-12T02:56:06.355Z,3.30
2023-01-12T02:58:38.740Z,3.40
2023-01-12T03:01:07.378Z,3.30
2023-01-12T03:03:35.220Z,3.40
2023-01-12T03:06:02.232Z,3.30
2023-01-12T03:08:30.881Z,3.40
2023-01-12T03:11:20.736Z,3.20
2023-01-12T03:14:01.895Z,3.40
2023-01-12T03:16:33.752Z,3.40
2023-01-12T03:19:15.888Z,3.40
2023-01-12T03:21:55.171Z,3.30
2023-01-12T03:24:55.029Z,3.40
2023-01-12T03:27:37.742Z,3.40
2023-01-12T03:30:30.074Z,3.30
2023-01-12T03:32:57.224Z,3.40
2023-01-12T03:35:28.060Z,3.30
2023-01-12T03:38:14.881Z,3.50
2023-01-12T03:40:49.537Z,3.40
2023-01-12T03:43:23.950Z,3.40
2023-01-12T03:46:01.171Z,3.50
2023-01-12T03:48:46.169Z,3.50
2023-01-12T03:51:16.122Z,3.50
2023-01-12T03:53:44.606Z,3.50
2023-01-12T03:56:14.410Z,3.40
2023-01-12T03:58:41.675Z,3.40
2023-01-12T04:01:08.632Z,3.60
2023-01-12T04:03:35.708Z,3.60
2023-01-12T04:06:02.545Z,3.40
2023-01-12T04:08:29.378Z,3.50
2023-01-12T04:10:56.585Z,3.50
2023-01-12T04:13:23.445Z,3.60
2023-01-12T04:15:50.270Z,3.60
2023-01-12T04:18:17.359Z,3.70
2023-01-12T04:20:44.209Z,3.60
2023-01-12T04:23:11.034Z,3.60
2023-01-12T04:25:38.258Z,3.60
2023-01-12T04:28:05.713Z,3.50
2023-01-12T04:30:34.285Z,3.50
2023-01-12T04:33:06.021Z,3.60
2023-01-12T04:35:32.832Z,3.60
2023-01-12T04:38:06.735Z,4.40
2023-01-12T04:40:33.493Z,3.60
2023-01-12T04:43:11.032Z,3.60
2023-01-12T04:45:40.865Z,3.70
2023-01-12T04:48:12.790Z,3.50
2023-01-12T04:50:40.376Z,3.60
2023-01-12T04:53:09.439Z,3.50
2023-01-12T04:55:38.915Z,3.60
2023-01-12T04:58:06.041Z,3.50
2023-01-12T05:00:33.042Z,3.50
2023-01-12T05:03:03.614Z,3.70
2023-01-12T05:05:33.104Z,3.70
2023-01-12T05:08:20.072Z,3.90
2023-01-12T05:10:54.939Z,3.90
2023-01-12T05:13:25.095Z,3.90
2023-01-12T05:15:51.883Z,3.90
2023-01-12T05:18:18.863Z,3.80
2023-01-12T05:20:45.882Z,3.90
2023-01-12T05:23:12.730Z,3.80
2023-01-12T05:25:39.538Z,4.00
2023-01-12T05:28:06.628Z,4.00
2023-01-12T05:30:33.546Z,4.00
2023-01-12T05:33:00.450Z,4.00
2023-01-12T05:35:27.429Z,4.00
2023-01-12T05:37:57.417Z,3.90
2023-01-12T05:40:24.562Z,4.00
2023-01-12T05:43:10.882Z,4.00
2023-01-12T05:45:37.760Z,4.00
2023-01-12T05:48:04.909Z,4.00
2023-01-12T05:50:31.912Z,4.00
2023-01-12T05:52:58.732Z,3.90
2023-01-12T05:55:25.544Z,3.90
2023-01-12T05:57:52.777Z,4.00
2023-01-12T06:00:19.861Z,4.00
2023-01-12T06:02:47.871Z,4.10
2023-01-12T06:05:14.795Z,4.20
2023-01-12T06:07:42.692Z,4.10
2023-01-12T06:10:10.467Z,4.10
2023-01-12T06:12:56.042Z,4.20
2023-01-12T06:15:22.880Z,4.20
2023-01-12T06:17:49.711Z,4.10
2023-01-12T06:20:17.396Z,4.00
2023-01-12T06:22:45.351Z,4.20
2023-01-12T06:25:12.979Z,4.20
2023-01-12T06:27:39.854Z,4.20
2023-01-12T06:30:08.579Z,4.20
2023-01-12T06:32:35.894Z,4.20
2023-01-12T06:35:18.009Z,4.20
2023-01-12T06:37:45.985Z,4.20
2023-01-12T06:40:13.332Z,4.20
2023-01-12T06:42:42.225Z,4.20
2023-01-12T06:45:10.020Z,4.20
2023-01-12T06:47:49.270Z,4.10
2023-01-12T06:50:16.518Z,4.10
2023-01-12T06:52:43.495Z,4.10
2023-01-12T06:55:10.479Z,4.10
2023-01-12T06:57:37.322Z,4.20
2023-01-12T07:00:06.333Z,4.20
2023-01-12T07:02:33.294Z,4.30
2023-01-12T07:05:00.505Z,4.20
2023-01-12T07:07:27.559Z,4.10
2023-01-12T07:09:54.371Z,4.20
2023-01-12T07:12:21.292Z,4.30
2023-01-12T07:14:48.132Z,4.20
2023-01-12T07:17:14.970Z,4.20
2023-01-12T07:19:42.387Z,4.20
2023-01-12T07:22:09.452Z,4.30
2023-01-12T07:24:36.275Z,4.30
2023-01-12T07:27:03.152Z,4.40
2023-01-12T07:29:29.970Z,4.30
2023-01-12T07:31:56.788Z,4.30
2023-01-12T07:34:23.704Z,4.20
2023-01-12T07:36:51.336Z,4.80
2023-01-12T07:39:18.277Z,4.40
2023-01-12T07:42:03.942Z,4.50
2023-01-12T07:44:30.791Z,4.40
2023-01-12T07:46:59.609Z,4.40
2023-01-12T07:49:27.936Z,4.50
2023-01-12T07:51:55.543Z,4.70
2023-01-12T07:54:22.971Z,4.70
2023-01-12T07:56:49.882Z,4.60
2023-01-12T07:59:17.732Z,4.70
2023-01-12T08:01:44.674Z,4.70
2023-01-12T08:04:11.692Z,4.50
2023-01-12T08:06:38.522Z,4.60
2023-01-12T08:09:05.576Z,4.70
2023-01-12T08:11:32.490Z,4.80
2023-01-12T08:13:59.520Z,4.70
2023-01-12T08:16:41.155Z,4.60
2023-01-12T08:19:15.427Z,4.50
2023-01-12T08:21:50.952Z,4.50
2023-01-12T08:24:23.380Z,4.50
2023-01-12T08:26:53.555Z,4.60
2023-01-12T08:29:30.677Z,4.70
2023-01-12T08:32:04.812Z,4.70
2023-01-12T08:34:32.753Z,4.70
2023-01-12T08:37:04.583Z,4.70
2023-01-12T08:39:31.593Z,4.80
2023-01-12T08:41:58.407Z,4.80
2023-01-12T08:44:28.559Z,4.80
2023-01-12T08:46:55.470Z,4.80
2023-01-12T08:49:25.192Z,4.70
2023-01-12T08:51:52.714Z,4.80
2023-01-12T08:54:20.740Z,4.90
2023-01-12T08:56:47.558Z,5.00
2023-01-12T08:59:14.496Z,5.00
2023-01-12T09:01:41.477Z,5.00
2023-01-12T09:04:09.057Z,5.20
2023-01-12T09:06:39.922Z,5.30
2023-01-12T09:09:10.174Z,5.40
2023-01-12T09:11:38.307Z,5.10
2023-01-12T09:14:06.300Z,5.10
2023-01-12T09:16:34.002Z,5.00
2023-01-12T09:19:01.107Z,5.00
2023-01-12T09:21:29.491Z,5.00
2023-01-12T09:23:56.924Z,5.00
2023-01-12T09:26:28.328Z,5.10
2023-01-12T09:28:57.615Z,5.00
2023-01-12T09:31:25.303Z,5.10
2023-01-12T09:33:53.555Z,5.10
2023-01-12T09:36:26.210Z,5.30
2023-01-12T09:38:53.550Z,5.40
2023-01-12T09:41:51.986Z,5.40
2023-01-12T09:44:55.166Z,5.50
2023-01-12T09:47:24.850Z,5.60
2023-01-12T09:50:15.782Z,5.50
2023-01-12T09:52:58.884Z,5.60
2023-01-12T09:55:29.605Z,5.50
2023-01-12T09:58:02.644Z,5.60
2023-01-12T10:00:29.587Z,5.50
2023-01-12T10:03:29.704Z,5.40
2023-01-12T10:06:00.550Z,5.40
2023-01-12T10:08:38.358Z,5.40
2023-01-12T10:11:14.879Z,5.40
2023-01-12T10:14:11.623Z,5.40
2023-01-12T10:16:59.265Z,5.50
2023-01-12T10:19:38.813Z,5.50
2023-01-12T10:22:38.787Z,5.60
2023-01-12T10:25:32.211Z,5.60
2023-01-12T10:28:00.347Z,5.50
2023-01-12T10:30:31.822Z,5.70
2023-01-12T10:33:12.297Z,5.70
2023-01-12T10:35:50.351Z,5.80
2023-01-12T10:38:38.371Z,5.60
2023-01-12T10:41:11.305Z,5.70
2023-01-12T10:43:39.846Z,5.70
2023-01-12T10:46:19.030Z,5.70
2023-01-12T10:48:47.883Z,5.80
2023-01-12T10:51:26.258Z,5.70
2023-01-12T10:54:02.054Z,5.80
2023-01-12T10:56:41.673Z,5.70
2023-01-12T10:59:19.721Z,5.70
2023-01-12T11:02:05.681Z,5.70
2023-01-12T11:04:50.349Z,5.70
2023-01-12T11:07:22.900Z,5.80
2023-01-12T11:09:49.803Z,5.80
2023-01-12T11:12:53.096Z,6.00
2023-01-12T11:15:20.079Z,5.90
2023-01-12T11:18:13.809Z,5.80
2023-01-12T11:20:50.400Z,5.80
2023-01-12T11:23:39.167Z,5.80
2023-01-12T11:26:26.472Z,5.80
2023-01-12T11:28:58.342Z,5.80
2023-01-12T11:31:44.246Z,5.80
2023-01-12T11:34:18.992Z,5.80
2023-01-12T11:37:02.505Z,5.70
2023-01-12T11:39:32.422Z,5.70
2023-01-12T11:42:19.905Z,5.90
2023-01-12T11:45:01.519Z,6.10
2023-01-12T11:47:34.841Z,6.10
2023-01-12T11:50:41.196Z,6.20
2023-01-12T11:53:19.126Z,6.00
2023-01-12T11:56:21.252Z,6.00
2023-01-12T11:58:55.309Z,6.10
2023-01-12T12:01:33.848Z,6.10
2023-01-12T12:04:06.864Z,6.10
2023-01-12T12:06:39.371Z,6.20
2023-01-12T12:09:15.058Z,6.20
2023-01-12T12:12:20.153Z,6.20
2023-01-12T12:15:28.313Z,6.10
2023-01-12T12:18:11.889Z,6.10
2023-01-12T12:21:01.932Z,6.20
2023-01-12T12:23:47.401Z,6.10
2023-01-12T12:26:22.460Z,6.10
2023-01-12T12:29:00.645Z,6.20
2023-01-12T12:31:27.410Z,6.10
2023-01-12T12:34:33.246Z,5.90
2023-01-12T12:37:13.361Z,5.90
2023-01-12T12:40:04.771Z,6.10
2023-01-12T12:43:02.234Z,6.20
2023-01-12T12:46:01.276Z,6.30
2023-01-12T12:48:52.441Z,6.20
2023-01-12T12:51:20.846Z,6.20
2023-01-12T12:53:52.335Z,6.30
2023-01-12T12:56:22.429Z,6.30
2023-01-12T12:58:51.653Z,6.20
2023-01-12T13:01:21.852Z,6.10
2023-01-12T13:03:55.998Z,6.00
2023-01-12T13:06:34.752Z,6.10
2023-01-12T13:09:16.600Z,6.20
2023-01-12T13:11:56.472Z,6.40
2023-01-12T13:14:38.105Z,6.40
2023-01-12T13:17:20.000Z,6.60
2023-01-12T13:19:48.956Z,6.60
2023-01-12T13:22:31.065Z,6.70
2023-01-12T13:25:10.155Z,6.70
2023-01-12T13:27:48.967Z,6.60
2023-01-12T13:30:21.969Z,6.50
2023-01-12T13:33:00.681Z,6.30
2023-01-12T13:35:33.479Z,6.40
2023-01-12T13:38:28.900Z,6.50
2023-01-12T13:41:13.865Z,6.40
2023-01-12T13:43:45.264Z,6.50
2023-01-12T13:46:22.040Z,6.60
2023-01-12T13:48:51.714Z,6.60
2023-01-12T13:51:28.894Z,6.50
2023-01-12T13:54:04.258Z,6.50
2023-01-12T13:56:32.112Z,6.30
2023-01-12T13:59:01.905Z,6.20
2023-01-12T14:01:49.424Z,6.40
2023-01-12T14:04:19.853Z,6.30
2023-01-12T14:06:53.396Z,6.40
2023-01-12T14:09:38.241Z,6.30
2023-01-12T14:12:08.081Z,6.30
2023-01-12T14:15:08.047Z,6.20
2023-01-12T14:17:50.368Z,6.10
2023-01-12T14:20:29.053Z,6.20
2023-01-12T14:23:17.813Z,6.10
2023-01-12T14:25:45.408Z,6.10
2023-01-12T14:28:20.397Z,6.10
2023-01-12T14:30:53.367Z,6.10
2023-01-12T14:33:33.571Z,6.10
2023-01-12T14:36:21.298Z,6.00
2023-01-12T14:38:48.972Z,6.00
2023-01-12T14:41:41.077Z,6.00
2023-01-12T14:44:38.025Z,6.00
2023-01-12T14:47:05.020Z,6.00
2023-01-12T14:49:34.589Z,5.80
2023-01-12T14:52:17.934Z,5.80
2023-01-12T14:54:44.631Z,5.70
2023-01-12T14:57:23.442Z,5.70
2023-01-12T14:59:51.053Z,5.80
2023-01-12T15:02:33.285Z,5.80
2023-01-12T15:05:09.119Z,5.80
2023-01-12T15:07:41.471Z,5.70
2023-01-12T15:10:11.075Z,5.70
2023-01-12T15:12:48.117Z,5.60
2023-01-12T15:15:25.714Z,5.60
2023-01-12T15:18:13.371Z,5.50
2023-01-12T15:21:01.045Z,5.50
2023-01-12T15:23:55.692Z,5.50
2023-01-12T15:26:22.697Z,5.50
2023-01-12T15:28:50.025Z,5.50
2023-01-12T15:31:28.118Z,5.50
2023-01-12T15:33:56.006Z,5.40
2023-01-12T15:36:22.863Z,5.40
2023-01-12T15:38:49.713Z,5.40
2023-01-12T15:41:47.721Z,5.40
2023-01-12T15:44:19.924Z,5.30
2023-01-12T15:46:47.491Z,5.20
2023-01-12T15:49:15.195Z,5.30
2023-01-12T15:51:44.559Z,5.30
2023-01-12T15:54:12.903Z,5.30
2023-01-12T15:56:39.853Z,5.30
2023-01-12T15:59:07.140Z,5.20
2023-01-12T16:01:48.715Z,5.20
2023-01-12T16:07:06.514Z,5.30
2023-01-12T16:09:33.413Z,5.20
2023-01-12T16:12:00.221Z,5.10
2023-01-12T16:14:27.042Z,5.10
2023-01-12T16:16:54.144Z,5.10
2023-01-12T16:19:22.357Z,5.00
2023-01-12T16:21:49.325Z,5.00
2023-01-12T16:24:16.180Z,5.00
2023-01-12T16:26:43.701Z,5.00
2023-01-12T16:29:10.561Z,5.00
2023-01-12T16:31:39.332Z,5.00
2023-01-12T16:34:06.612Z,5.10
2023-01-12T16:36:33.838Z,5.10
2023-01-12T16:39:00.769Z,5.10
2023-01-12T16:41:27.614Z,5.00
2023-01-12T16:43:57.741Z,4.90
2023-01-12T16:46:24.647Z,4.90
2023-01-12T16:48:52.597Z,5.00
2023-01-12T16:51:19.515Z,5.10
2023-01-12T16:53:47.433Z,4.90
2023-01-12T16:56:16.173Z,5.00
2023-01-12T16:58:48.163Z,5.00
2023-01-12T17:01:17.904Z,5.00
2023-01-12T17:03:45.035Z,5.00
2023-01-12T17:06:15.569Z,5.00
2023-01-12T17:08:42.598Z,5.00
2023-01-12T17:11:12.175Z,5.00
2023-01-12T17:13:39.989Z,5.00
2023-01-12T17:16:08.996Z,4.90
2023-01-12T17:18:36.908Z,4.90
2023-01-12T17:21:11.185Z,4.90
2023-01-12T17:23:42.609Z,4.90
2023-01-12T17:26:13.171Z,4.80
2023-01-12T17:28:40.916Z,4.90
2023-01-12T17:31:14.435Z,4.80
2023-01-12T17:33:41.900Z,4.70
2023-01-12T17:36:10.716Z,4.80
2023-01-12T17:38:39.997Z,4.80
2023-01-12T17:41:34.296Z,4.70
2023-01-12T17:44:03.309Z,4.60
2023-01-12T17:46:30.962Z,4.60
2023-01-12T17:48:59.320Z,4.80
2023-01-12T17:51:27.006Z,4.70
2023-01-12T17:53:55.525Z,4.70
2023-01-12T17:56:23.084Z,4.70
2023-01-12T17:58:51.617Z,4.70
2023-01-12T18:01:19.072Z,4.60
2023-01-12T18:03:46.069Z,4.60
2023-01-12T18:06:18.577Z,4.60
2023-01-12T18:08:53.564Z,4.40
2023-01-12T18:11:21.149Z,4.30
2023-01-12T18:13:48.440Z,4.50
2023-01-12T18:16:16.463Z,4.40
2023-01-12T18:18:44.379Z,4.30
2023-01-12T18:21:14.829Z,4.30
2023-01-12T18:23:43.815Z,4.40
2023-01-12T18:26:15.935Z,4.40
2023-01-12T18:28:43.028Z,4.40
2023-01-12T18:31:18.928Z,4.30
2023-01-12T18:33:48.617Z,4.40
2023-01-12T18:36:23.580Z,4.30
2023-01-12T18:38:52.489Z,4.20
2023-01-12T18:41:39.718Z,4.20
2023-01-12T18:44:06.994Z,4.30
2023-01-12T18:47:00.270Z,4.20
2023-01-12T18:49:29.833Z,4.20
2023-01-12T18:52:15.558Z,4.20
2023-01-12T18:54:48.202Z,4.20
2023-01-12T18:57:19.741Z,4.30
2023-01-12T18:59:48.069Z,4.20
2023-01-12T19:02:15.854Z,4.10
2023-01-12T19:04:48.799Z,4.10
2023-01-12T19:07:40.327Z,4.20
2023-01-12T19:10:07.862Z,4.10
2023-01-12T19:12:34.677Z,4.10
2023-01-12T19:15:19.974Z,3.90
2023-01-12T19:17:46.924Z,3.90
2023-01-12T19:20:17.637Z,3.90
2023-01-12T19:23:04.049Z,4.00
2023-01-12T19:25:49.663Z,4.00
2023-01-12T19:28:35.662Z,3.80
2023-01-12T19:31:12.160Z,4.00
2023-01-12T19:33:40.334Z,4.00
2023-01-12T19:36:10.468Z,4.00
2023-01-12T19:38:37.916Z,4.00
2023-01-12T19:41:32.833Z,3.90
2023-01-12T19:44:05.083Z,4.00
2023-01-12T19:46:33.449Z,3.80
2023-01-12T19:49:00.932Z,3.70
2023-01-12T19:51:28.104Z,3.80
2023-01-12T19:53:55.576Z,3.80
2023-01-12T19:56:22.388Z,3.70
2023-01-12T19:58:49.233Z,3.80
2023-01-12T20:01:23.695Z,3.80
2023-01-12T20:03:51.106Z,3.60
2023-01-12T20:06:18.001Z,3.70
2023-01-12T20:08:44.933Z,3.70
2023-01-12T20:11:11.809Z,3.70
2023-01-12T20:13:38.640Z,3.70
2023-01-12T20:16:09.938Z,3.50
2023-01-12T20:18:37.170Z,3.60
2023-01-12T20:21:09.299Z,3.60
2023-01-12T20:23:37.066Z,3.60
2023-01-12T20:26:11.407Z,3.60
2023-01-12T20:28:38.957Z,3.60
2023-01-12T20:31:10.710Z,3.50
2023-01-12T20:33:37.680Z,3.50
2023-01-12T20:36:04.934Z,3.50
2023-01-12T20:38:31.793Z,3.50
2023-01-12T20:40:58.703Z,3.50
2023-01-12T20:43:25.582Z,3.50
2023-01-12T20:45:52.607Z,3.40
2023-01-12T20:48:19.439Z,3.30
2023-01-12T20:50:46.952Z,3.40
2023-01-12T20:53:15.554Z,3.40
2023-01-12T20:55:49.086Z,3.40
2023-01-12T20:58:17.258Z,3.40
2023-01-12T21:00:44.277Z,3.30
2023-01-12T21:03:11.273Z,3.40
2023-01-12T21:05:45.926Z,3.30
2023-01-12T21:08:14.205Z,3.30
2023-01-12T21:10:47.259Z,3.30
2023-01-12T21:13:13.994Z,3.20
2023-01-12T21:15:41.459Z,3.20
2023-01-12T21:18:08.408Z,3.30
2023-01-12T21:20:35.259Z,3.20
2023-01-12T21:23:02.210Z,3.10
2023-01-12T21:25:29.322Z,3.10
2023-01-12T21:27:56.139Z,3.10
2023-01-12T21:30:23.733Z,3.10
2023-01-12T21:32:50.613Z,3.10
2023-01-12T21:35:17.977Z,3.20
2023-01-12T21:37:44.872Z,3.20
2023-01-12T21:40:14.273Z,3.10
2023-01-12T21:42:59.641Z,3.10
2023-01-12T21:45:26.515Z,3.10
2023-01-12T21:47:55.462Z,3.20
2023-01-12T21:50:22.989Z,3.00
2023-01-12T21:52:49.858Z,3.00
2023-01-12T21:55:18.873Z,3.10
2023-01-12T21:57:46.910Z,2.90
2023-01-12T22:00:14.315Z,2.90
2023-01-12T22:02:41.702Z,3.00
2023-01-12T22:05:09.716Z,3.10
2023-01-12T22:07:36.728Z,3.10
2023-01-12T22:10:22.224Z,3.00
2023-01-12T22:12:57.072Z,3.00
2023-01-12T22:15:25.800Z,3.00
2023-01-12T22:17:54.572Z,2.90
2023-01-12T22:20:22.515Z,3.00
2023-01-12T22:22:49.662Z,3.00
2023-01-12T22:25:17.387Z,3.00
2023-01-12T22:27:44.718Z,3.00
2023-01-12T22:30:17.483Z,2.80
2023-01-12T22:32:44.457Z,2.90
2023-01-12T22:35:12.696Z,2.80
2023-01-12T22:37:40.210Z,2.80
2023-01-12T22:40:09.659Z,2.80
2023-01-12T22:42:55.534Z,2.70
2023-01-12T22:45:22.389Z,2.70
2023-01-12T22:47:53.784Z,2.60
2023-01-12T22:50:21.398Z,2.70
2023-01-12T22:52:54.734Z,2.70
2023-01-12T22:55:22.757Z,2.80
2023-01-12T22:57:49.696Z,2.70
2023-01-12T23:00:18.706Z,2.70
2023-01-12T23:03:01.616Z,2.70
2023-01-12T23:05:32.761Z,2.90
2023-01-12T23:08:00.192Z,2.70
2023-01-12T23:10:27.758Z,2.80
2023-01-12T23:13:16.244Z,2.80
2023-01-12T23:15:47.412Z,2.70
2023-01-12T23:18:17.445Z,3.00
2023-01-12T23:20:46.015Z,2.70
2023-01-12T23:23:18.287Z,2.80
2023-01-12T23:25:47.187Z,1.80
2023-01-12T23:28:15.047Z,2.70
2023-01-12T23:30:42.816Z,2.70
2023-01-12T23:33:10.435Z,2.70
2023-01-12T23:35:41.982Z,2.80
2023-01-12T23:38:13.797Z,2.70
2023-01-12T23:40:40.871Z,2.70
2023-01-12T23:43:07.867Z,2.80
2023-01-12T23:45:35.453Z,2.80
2023-01-12T23:48:02.494Z,2.00
2023-01-12T23:50:29.426Z,2.70
2023-01-12T23:52:56.386Z,2.80
2023-01-12T23:55:23.354Z,2.80
2023-01-12T23:57:50.346Z,2.80
